Detall de PIREP

Printer-friendly versionPDF version

[2013/06/22 09:19:00]
Flight IATA:CT1004
Pilot Number:011
Company ICAO:CAT
Aircraft Type:F50/A
PAX:50
Aircraft Registration:DREAMWINGS
Departing Airport: LFMP
Destination Airport: LERS
Alternate Airport:LEBL
Online: VATSIM
Route:BEXUR H110 GIR
Flight Level:F180
No Slew and time accel
No pause
Crash detect
Detect pilot in Cockpit between each 30 and 45 minutes
09:19 Zero fuel Weight: 41542 Lbs, Fuel Weight: 2724 Lbs
09:19 VATSIM:LFMP 220900Z 31015KT 9999 FEW050 22/10 Q1021 NOSIG
09:19 VATSIM:LERS 220900Z VRB03KT 9999 FEW040 24/10 Q1021
09:21 Parking Brakes off
09:30 Take-off
09:30 Take off Weight: 44158 Lbs
09:30 Wind: 312º @ 015 Knots Heading: 323º
09:30 POS N42º 44´ 32´´ E002º 52´ 17´´
09:30 Gear Up: 134 Knots
09:30 Flaps:3 at 134 Knots
09:31 Flaps:2 at 186 Knots
09:31 Flaps:1 at 182 Knots
09:31 Flaps:0 at 183 Knots
09:43 TOC
09:43 Fuel Weight: 2215 Lb
09:45 Wind:297º@010 Knots Heading: 217º Ground Speed: 273 Knots Altitude 18231 ft
09:58 TOD
09:58 Fuel Weight: 1752 Lb
10:00 Wind:228º@028 Knots Heading: 237º Ground Speed: 224 Knots Altitude 15685 ft
10:07 Flaps:1 at 189 Knots
10:08 Flaps:2 at 173 Knots
10:08 Flaps:3 at 151 Knots
10:09 Flaps:4 at 131 Knots
10:09 Gear Down: 131 Knots
10:09 Flaps:5 at 109 Knots
10:10 Flaps:6 at 100 Knots
10:15 Wind:224º@006 Knots Heading: 246º Ground Speed: 099 Knots Altitude 711 ft
10:15 TouchDown:Rate -87 ft/min Speed: 92 Knots
10:16 VATSIM:LERS 221000Z VRB08KT 9999 FEW030 25/11 Q1021
10:16 Land
10:16 Wind:225º@006 Knots
10:16 Heading: 249º
10:16 Flight Duration: 00:46
10:16 Landing Weight: 43113 Lbs
10:16 POS N41º 08´ 56´´ E001º 10´ 21´´
10:20 Parking brakes on
10:20 Block to Block Duration: 00:59
10:20 Final Fuel: 1529 Lbls
10:20 Spent Fuel: 1194 Lbls
10:20 Flight Length: 170 NM
10:20 TOD Land Length: 50 NM

Exportar CSV

Powered by Drupal - Modified by Danger4k